createdAt,value
2018-06-14T00:00:48.136Z,6.00
2018-06-14T00:03:17.211Z,6.97
2018-06-14T00:05:46.283Z,7.33
2018-06-14T00:08:15.401Z,6.60
2018-06-14T00:10:44.451Z,6.40
2018-06-14T00:13:13.520Z,6.90
2018-06-14T00:15:42.724Z,5.87
2018-06-14T00:18:11.855Z,6.30
2018-06-14T00:20:40.887Z,6.07
2018-06-14T00:23:09.936Z,7.37
2018-06-14T00:25:39.040Z,6.50
2018-06-14T00:28:08.087Z,6.93
2018-06-14T00:30:37.140Z,7.40
2018-06-14T00:33:06.204Z,6.37
2018-06-14T00:35:35.279Z,7.37
2018-06-14T00:38:04.367Z,11.53
2018-06-14T00:40:33.454Z,9.80
2018-06-14T00:43:02.279Z,13.67
2018-06-14T00:45:31.207Z,9.43
2018-06-14T00:48:00.271Z,10.03
2018-06-14T00:50:29.376Z,6.73
2018-06-14T00:52:58.467Z,7.10
2018-06-14T00:55:27.555Z,10.50
2018-06-14T00:57:56.671Z,8.60
2018-06-14T01:00:25.745Z,7.57
2018-06-14T01:02:54.792Z,7.67
2018-06-14T01:05:23.882Z,7.70
2018-06-14T01:07:53.127Z,7.20
2018-06-14T01:10:22.224Z,9.03
2018-06-14T01:12:51.295Z,7.23
2018-06-14T01:15:20.383Z,5.50
2018-06-14T01:17:49.439Z,6.60
2018-06-14T01:20:18.715Z,7.93
2018-06-14T01:22:47.868Z,6.50
2018-06-14T01:25:16.908Z,6.40
2018-06-14T01:27:46.055Z,6.17
2018-06-14T01:30:15.183Z,5.90
2018-06-14T01:32:44.262Z,7.23
2018-06-14T01:35:13.343Z,7.10
2018-06-14T01:37:53.939Z,5.73
2018-06-14T01:40:23.024Z,6.90
2018-06-14T01:42:52.094Z,6.70
2018-06-14T01:45:21.199Z,6.70
2018-06-14T01:47:50.290Z,7.10
2018-06-14T01:50:19.363Z,6.83
2018-06-14T01:52:48.434Z,7.17
2018-06-14T01:55:17.531Z,5.93
2018-06-14T01:57:46.628Z,5.80
2018-06-14T02:00:15.684Z,6.60
2018-06-14T02:02:44.783Z,5.70
2018-06-14T02:05:13.956Z,6.40
2018-06-14T02:07:43.030Z,8.10
2018-06-14T02:10:12.087Z,5.97
2018-06-14T02:12:41.167Z,5.83
2018-06-14T02:15:16.229Z,5.83
2018-06-14T02:17:45.291Z,6.23
2018-06-14T02:20:14.366Z,5.70
2018-06-14T02:22:43.466Z,7.60
2018-06-14T02:25:12.566Z,6.07
2018-06-14T02:27:41.623Z,6.40
2018-06-14T02:30:10.720Z,6.63
2018-06-14T02:32:39.803Z,7.03
2018-06-14T02:35:08.887Z,8.43
2018-06-14T02:37:42.059Z,7.00
2018-06-14T02:40:12.795Z,7.63
2018-06-14T02:42:42.912Z,8.07
2018-06-14T02:45:11.977Z,7.73
2018-06-14T02:47:41.207Z,7.70
2018-06-14T02:50:10.592Z,7.13
2018-06-14T02:52:39.670Z,7.30
2018-06-14T02:55:08.743Z,7.00
2018-06-14T02:57:37.824Z,7.23
2018-06-14T03:00:07.461Z,7.00
2018-06-14T03:02:36.528Z,7.40
2018-06-14T03:05:05.586Z,8.50
2018-06-14T03:07:35.707Z,6.70
2018-06-14T03:10:05.809Z,7.43
2018-06-14T03:12:34.866Z,6.67
2018-06-14T03:15:03.959Z,7.83
2018-06-14T03:17:33.064Z,7.40
2018-06-14T03:20:02.139Z,7.10
2018-06-14T03:22:31.246Z,7.70
2018-06-14T03:25:00.299Z,7.40
2018-06-14T03:27:29.371Z,8.43
2018-06-14T03:29:58.428Z,7.37
2018-06-14T03:32:27.536Z,8.67
2018-06-14T03:34:56.589Z,7.70
2018-06-14T03:37:25.669Z,7.87
2018-06-14T03:39:54.721Z,6.90
2018-06-14T03:42:23.790Z,8.40
2018-06-14T03:44:52.923Z,8.80
2018-06-14T03:47:21.972Z,7.33
2018-06-14T03:49:51.055Z,6.80
2018-06-14T03:52:20.107Z,6.83
2018-06-14T03:54:48.934Z,9.83
2018-06-14T03:57:17.867Z,7.23
2018-06-14T03:59:46.921Z,7.97
2018-06-14T04:02:15.999Z,9.10
2018-06-14T04:04:45.102Z,7.43
2018-06-14T04:07:14.195Z,7.33
2018-06-14T04:09:43.271Z,9.13
2018-06-14T04:12:12.332Z,10.40
2018-06-14T04:14:41.431Z,18.60
2018-06-14T04:17:10.520Z,9.40
2018-06-14T04:19:39.595Z,7.60
2018-06-14T04:22:08.663Z,7.20
2018-06-14T04:24:37.736Z,9.00
2018-06-14T04:27:06.829Z,11.20
2018-06-14T04:29:35.902Z,10.30
2018-06-14T04:32:05.085Z,11.87
2018-06-14T04:34:34.172Z,9.47
2018-06-14T04:37:03.236Z,8.97
2018-06-14T04:39:32.410Z,9.80
2018-06-14T04:42:01.564Z,7.47
2018-06-14T04:44:30.685Z,12.10
2018-06-14T04:46:59.746Z,14.80
2018-06-14T04:49:28.812Z,8.50
2018-06-14T04:51:57.997Z,10.70
2018-06-14T04:54:27.085Z,9.50
2018-06-14T04:56:56.138Z,9.03
2018-06-14T04:59:25.229Z,7.87
2018-06-14T05:01:54.356Z,9.57
2018-06-14T05:04:23.418Z,7.80
2018-06-14T05:06:52.475Z,7.20
2018-06-14T05:09:21.547Z,9.50
2018-06-14T05:11:50.625Z,9.60
2018-06-14T05:14:19.734Z,9.20
2018-06-14T05:16:48.816Z,9.07
2018-06-14T05:19:17.855Z,6.77
2018-06-14T05:21:46.936Z,9.27
2018-06-14T05:24:16.016Z,8.50
2018-06-14T05:26:45.092Z,8.73
2018-06-14T05:29:14.211Z,9.23
2018-06-14T05:31:43.293Z,10.17
2018-06-14T05:34:12.354Z,7.17
2018-06-14T05:36:41.427Z,9.07
2018-06-14T05:39:12.163Z,7.83
2018-06-14T05:41:41.771Z,7.90
2018-06-14T05:44:11.071Z,7.30
2018-06-14T05:46:40.255Z,7.37
2018-06-14T05:49:09.379Z,20.40
2018-06-14T05:51:38.455Z,8.03
2018-06-14T05:54:07.546Z,8.03
2018-06-14T05:56:36.603Z,6.00
2018-06-14T05:59:05.688Z,9.23
2018-06-14T06:01:34.767Z,7.80
2018-06-14T06:04:03.878Z,8.93
2018-06-14T06:06:32.924Z,7.80
2018-06-14T06:09:02.068Z,7.90
2018-06-14T06:11:31.138Z,7.63
2018-06-14T06:14:00.271Z,8.90
2018-06-14T06:16:29.359Z,8.77
2018-06-14T06:18:58.424Z,7.50
2018-06-14T06:21:27.487Z,9.73
2018-06-14T06:23:56.548Z,8.90
2018-06-14T06:26:25.693Z,8.13
2018-06-14T06:28:54.676Z,6.80
2018-06-14T06:31:24.041Z,6.17
2018-06-14T06:33:53.425Z,10.23
2018-06-14T06:36:22.522Z,10.33
2018-06-14T06:38:51.621Z,7.90
2018-06-14T06:41:20.834Z,6.27
2018-06-14T06:43:49.909Z,8.43
2018-06-14T06:46:19.033Z,5.40
2018-06-14T06:48:48.128Z,5.73
2018-06-14T06:51:17.256Z,12.73
2018-06-14T06:53:46.298Z,9.13
2018-06-14T06:56:15.381Z,9.10
2018-06-14T06:58:44.536Z,5.60
2018-06-14T07:01:13.560Z,6.30
2018-06-14T07:03:42.631Z,5.63
2018-06-14T07:06:11.704Z,7.20
2018-06-14T07:08:40.755Z,8.20
2018-06-14T07:11:09.848Z,7.53
2018-06-14T07:13:38.911Z,4.03
2018-06-14T07:16:07.995Z,6.00
2018-06-14T07:18:37.065Z,6.20
2018-06-14T07:21:06.128Z,6.70
2018-06-14T07:23:35.210Z,5.80
2018-06-14T07:26:04.414Z,8.17
2018-06-14T07:28:33.452Z,9.13
2018-06-14T07:31:02.537Z,7.53
2018-06-14T07:33:31.628Z,13.33
2018-06-14T07:36:00.676Z,7.80
2018-06-14T07:38:29.751Z,5.90
2018-06-14T07:40:58.839Z,6.47
2018-06-14T07:43:27.656Z,7.73
2018-06-14T07:45:56.603Z,8.20
2018-06-14T07:48:25.667Z,6.93
2018-06-14T07:50:55.596Z,8.40
2018-06-14T07:53:24.669Z,6.00
2018-06-14T07:55:53.735Z,6.30
2018-06-14T07:58:22.916Z,6.07
2018-06-14T08:00:52.195Z,5.40
2018-06-14T08:03:21.436Z,8.77
2018-06-14T08:05:50.515Z,7.40
2018-06-14T08:08:19.571Z,6.90
2018-06-14T08:10:48.662Z,6.60
2018-06-14T08:13:17.756Z,8.50
2018-06-14T08:15:46.840Z,7.40
2018-06-14T08:18:15.922Z,7.50
2018-06-14T08:20:44.980Z,6.83
2018-06-14T08:23:14.095Z,7.83
2018-06-14T08:25:43.184Z,6.37
2018-06-14T08:28:12.236Z,5.93
2018-06-14T08:30:41.285Z,8.90
2018-06-14T08:33:10.347Z,6.10
2018-06-14T08:35:39.415Z,5.63
2018-06-14T08:38:08.544Z,5.83
2018-06-14T08:40:37.852Z,4.53
2018-06-14T08:43:06.956Z,5.53
2018-06-14T08:45:36.048Z,5.93
2018-06-14T08:48:05.163Z,5.60
2018-06-14T08:50:34.207Z,6.23
2018-06-14T08:53:03.431Z,8.30
2018-06-14T08:55:32.869Z,7.33
2018-06-14T08:58:01.937Z,6.63
2018-06-14T09:00:30.991Z,7.17
2018-06-14T09:03:00.096Z,6.70
2018-06-14T09:05:29.130Z,6.90
2018-06-14T09:07:58.332Z,7.17
2018-06-14T09:10:27.428Z,6.37
2018-06-14T09:12:56.503Z,6.30
2018-06-14T09:15:25.691Z,6.00
2018-06-14T09:17:54.828Z,6.40
2018-06-14T09:20:23.885Z,6.40
2018-06-14T09:22:52.924Z,6.60
2018-06-14T09:25:22.040Z,8.40
2018-06-14T09:27:51.111Z,6.27
2018-06-14T09:30:20.375Z,7.33
2018-06-14T09:32:49.572Z,5.73
2018-06-14T09:35:18.635Z,6.07
2018-06-14T09:37:47.763Z,6.90
2018-06-14T09:40:16.855Z,6.43
2018-06-14T09:42:46.081Z,16.07
2018-06-14T09:45:15.140Z,8.30
2018-06-14T09:47:44.191Z,8.00
2018-06-14T09:50:13.295Z,8.13
2018-06-14T09:52:42.338Z,7.50
2018-06-14T09:55:11.445Z,7.33
2018-06-14T09:57:40.513Z,8.50
2018-06-14T10:00:09.593Z,9.40
2018-06-14T10:02:38.935Z,7.70
2018-06-14T10:05:08.191Z,9.10
2018-06-14T10:07:37.275Z,10.10
2018-06-14T10:10:06.347Z,8.47
2018-06-14T10:12:36.572Z,10.10
2018-06-14T10:15:05.954Z,8.10
2018-06-14T10:17:35.197Z,7.30
2018-06-14T10:20:04.339Z,7.57
2018-06-14T10:22:33.399Z,8.63
2018-06-14T10:25:02.476Z,7.90
2018-06-14T10:27:31.736Z,9.07
2018-06-14T10:30:00.855Z,10.60
2018-06-14T10:32:29.952Z,8.23
2018-06-14T10:34:58.984Z,7.50
2018-06-14T10:37:27.782Z,9.50
2018-06-14T10:39:56.772Z,12.40
2018-06-14T10:42:25.861Z,8.10
2018-06-14T10:44:54.993Z,8.07
2018-06-14T10:47:24.054Z,8.47
2018-06-14T10:49:53.137Z,7.60
2018-06-14T10:52:22.294Z,8.70
2018-06-14T10:54:51.329Z,7.83
2018-06-14T10:57:20.432Z,7.37
2018-06-14T10:59:49.544Z,7.73
2018-06-14T11:04:43.195Z,7.83
2018-06-14T11:07:12.271Z,7.23
2018-06-14T11:09:41.382Z,9.90
2018-06-14T11:12:10.463Z,6.87
2018-06-14T11:14:39.612Z,6.67
2018-06-14T11:17:08.708Z,6.07
2018-06-14T11:19:37.796Z,6.63
2018-06-14T11:22:06.887Z,6.80
2018-06-14T11:24:35.987Z,5.80
2018-06-14T11:27:05.235Z,5.73
2018-06-14T11:29:34.465Z,7.00
2018-06-14T11:32:03.587Z,5.30
2018-06-14T11:34:32.707Z,5.10
2018-06-14T11:37:01.792Z,6.30
2018-06-14T11:39:31.010Z,5.90
2018-06-14T11:42:00.267Z,5.40
2018-06-14T11:44:29.324Z,8.23
2018-06-14T11:46:58.455Z,6.57
2018-06-14T11:49:27.522Z,5.00
2018-06-14T11:51:56.610Z,5.60
2018-06-14T11:54:25.676Z,5.30
2018-06-14T11:56:54.733Z,6.53
2018-06-14T11:59:23.889Z,6.00
2018-06-14T12:01:52.959Z,6.50
2018-06-14T12:04:22.054Z,6.50
2018-06-14T12:06:51.203Z,5.43
2018-06-14T12:09:20.343Z,6.20
2018-06-14T12:11:49.643Z,5.07
2018-06-14T12:14:18.743Z,5.17
2018-06-14T12:16:47.836Z,5.70
2018-06-14T12:19:17.024Z,5.00
2018-06-14T12:21:46.128Z,5.50
2018-06-14T12:24:15.178Z,5.30
2018-06-14T12:26:44.264Z,6.30
2018-06-14T12:29:13.336Z,5.30
2018-06-14T12:31:42.448Z,4.90
2018-06-14T12:34:11.519Z,5.73
2018-06-14T12:36:40.599Z,4.40
2018-06-14T12:39:09.784Z,5.30
2018-06-14T12:41:38.877Z,4.93
2018-06-14T12:44:08.324Z,4.10
2018-06-14T12:46:37.399Z,4.07
2018-06-14T12:49:06.468Z,4.10
2018-06-14T12:51:35.616Z,4.57
2018-06-14T12:54:05.787Z,4.77
2018-06-14T12:56:34.896Z,3.27
2018-06-14T12:59:03.992Z,4.93
2018-06-14T13:01:33.096Z,4.67
2018-06-14T13:04:02.244Z,3.67
2018-06-14T13:06:31.422Z,6.13
2018-06-14T13:09:00.477Z,4.77
2018-06-14T13:11:29.521Z,4.47
2018-06-14T13:13:58.647Z,12.00
2018-06-14T13:16:27.775Z,4.47
2018-06-14T13:18:56.942Z,3.60
2018-06-14T13:21:26.094Z,4.73
2018-06-14T13:23:55.220Z,3.40
2018-06-14T13:26:24.298Z,3.30
2018-06-14T13:28:53.423Z,4.03
2018-06-14T13:31:22.554Z,4.77
2018-06-14T13:33:51.731Z,3.70
2018-06-14T13:36:20.812Z,4.63
2018-06-14T13:38:49.885Z,4.40
2018-06-14T13:41:19.014Z,3.40
2018-06-14T13:43:48.092Z,3.60
2018-06-14T13:46:17.199Z,4.00
2018-06-14T13:48:46.422Z,4.13
2018-06-14T13:51:15.483Z,3.97
2018-06-14T13:53:44.571Z,3.17
2018-06-14T13:56:13.719Z,3.30
2018-06-14T13:58:42.868Z,3.20
2018-06-14T14:01:12.090Z,4.10
2018-06-14T14:03:41.043Z,3.60
2018-06-14T14:06:10.176Z,3.53
2018-06-14T14:08:39.307Z,3.80
2018-06-14T14:11:08.315Z,4.60
2018-06-14T14:13:37.414Z,4.17
2018-06-14T14:16:06.498Z,4.07
2018-06-14T14:18:35.537Z,6.33
2018-06-14T14:21:04.609Z,5.10
2018-06-14T14:23:33.689Z,5.63
2018-06-14T14:26:02.778Z,5.60
2018-06-14T14:28:32.099Z,5.80
2018-06-14T14:31:01.181Z,3.70
2018-06-14T14:33:31.127Z,5.10
2018-06-14T14:36:00.211Z,4.93
2018-06-14T14:38:29.608Z,4.37
2018-06-14T14:40:58.811Z,4.83
2018-06-14T14:43:27.911Z,4.57
2018-06-14T14:45:57.000Z,5.33
2018-06-14T14:48:26.032Z,5.00
2018-06-14T14:50:55.231Z,5.53
2018-06-14T14:53:24.323Z,5.60
2018-06-14T14:55:53.384Z,4.73
2018-06-14T14:58:22.573Z,3.53
2018-06-14T15:00:51.785Z,4.50
2018-06-14T15:03:20.859Z,6.10
2018-06-14T15:05:49.959Z,4.60
2018-06-14T15:08:19.035Z,6.33
2018-06-14T15:10:48.155Z,5.00
2018-06-14T15:13:17.215Z,6.20
2018-06-14T15:15:46.365Z,5.53
2018-06-14T15:18:15.453Z,5.03
2018-06-14T15:20:44.540Z,5.97
2018-06-14T15:23:13.664Z,9.90
2018-06-14T15:25:43.464Z,8.60
2018-06-14T15:28:12.608Z,6.23
2018-06-14T15:30:41.691Z,9.17
2018-06-14T15:33:10.807Z,14.97
2018-06-14T15:35:39.932Z,14.37
2018-06-14T15:38:09.031Z,8.60
2018-06-14T15:40:38.120Z,7.50
2018-06-14T15:43:06.970Z,7.43
2018-06-14T15:45:35.916Z,7.03
2018-06-14T15:48:05.000Z,7.83
2018-06-14T15:50:34.053Z,9.13
2018-06-14T15:53:03.096Z,9.17
2018-06-14T15:55:45.028Z,10.20
2018-06-14T15:58:14.141Z,10.67
2018-06-14T16:00:43.345Z,6.40
2018-06-14T16:03:12.375Z,11.73
2018-06-14T16:05:41.472Z,8.37
2018-06-14T16:08:10.613Z,9.57
2018-06-14T16:10:39.681Z,19.50
2018-06-14T16:13:08.783Z,13.37
2018-06-14T16:15:37.885Z,10.27
2018-06-14T16:18:07.338Z,13.17
2018-06-14T16:20:36.575Z,8.80
2018-06-14T16:23:06.018Z,11.17
2018-06-14T16:25:35.160Z,11.33
2018-06-14T16:28:04.402Z,8.73
2018-06-14T16:30:33.690Z,7.07
2018-06-14T16:33:02.740Z,6.50
2018-06-14T16:35:31.823Z,9.53
2018-06-14T16:38:01.257Z,8.70
2018-06-14T16:40:30.519Z,7.97
2018-06-14T16:42:59.608Z,7.37
2018-06-14T16:45:28.655Z,7.60
2018-06-14T16:47:57.743Z,9.10
2018-06-14T16:50:26.839Z,11.60
2018-06-14T16:52:56.037Z,7.13
2018-06-14T16:55:25.100Z,8.10
2018-06-14T16:57:54.209Z,6.87
2018-06-14T17:00:23.298Z,7.53
2018-06-14T17:02:52.481Z,8.00
2018-06-14T17:05:21.581Z,6.70
2018-06-14T17:07:50.690Z,6.50
2018-06-14T17:10:19.782Z,5.63
2018-06-14T17:12:48.856Z,4.50
2018-06-14T17:15:18.166Z,5.73
2018-06-14T17:17:47.290Z,4.50
2018-06-14T17:20:16.366Z,5.80
2018-06-14T17:22:45.538Z,6.13
2018-06-14T17:25:14.615Z,6.53
2018-06-14T17:27:43.763Z,6.43
2018-06-14T17:30:13.003Z,5.90
2018-06-14T17:32:42.138Z,6.70
2018-06-14T17:35:11.494Z,5.00
2018-06-14T17:37:40.624Z,5.13
2018-06-14T17:40:09.733Z,7.67
2018-06-14T17:42:38.836Z,5.30
2018-06-14T17:45:07.911Z,5.00
2018-06-14T17:47:37.055Z,6.40
2018-06-14T17:50:06.315Z,4.73
2018-06-14T17:52:35.934Z,5.03
2018-06-14T17:55:05.380Z,4.67
2018-06-14T17:57:34.543Z,6.10
2018-06-14T18:00:03.871Z,6.00
2018-06-14T18:02:33.016Z,5.30
2018-06-14T18:05:02.816Z,5.20
2018-06-14T18:07:31.333Z,7.60
2018-06-14T18:10:00.590Z,5.53
2018-06-14T18:12:29.799Z,6.47
2018-06-14T18:14:58.929Z,5.27
2018-06-14T18:17:28.035Z,4.50
2018-06-14T18:19:57.190Z,6.77
2018-06-14T18:22:26.292Z,6.47
2018-06-14T18:24:55.391Z,5.73
2018-06-14T18:27:24.525Z,5.30
2018-06-14T18:29:53.602Z,5.40
2018-06-14T18:32:22.717Z,5.40
2018-06-14T18:34:51.904Z,5.30
2018-06-14T18:37:21.208Z,5.20
2018-06-14T18:39:50.594Z,4.73
2018-06-14T18:42:19.666Z,6.40
2018-06-14T18:44:48.883Z,6.30
2018-06-14T18:47:18.079Z,6.90
2018-06-14T18:49:47.210Z,5.97
2018-06-14T18:52:16.311Z,6.10
2018-06-14T18:54:45.619Z,6.57
2018-06-14T18:57:14.954Z,7.53
2018-06-14T18:59:44.107Z,5.57
2018-06-14T19:02:13.273Z,5.40
2018-06-14T19:04:42.538Z,4.40
2018-06-14T19:07:12.267Z,5.10
2018-06-14T19:09:41.461Z,6.17
2018-06-14T19:12:10.728Z,5.73
2018-06-14T19:14:39.808Z,7.40
2018-06-14T19:17:09.064Z,8.27
2018-06-14T19:19:38.397Z,9.73
2018-06-14T19:22:07.559Z,11.10
2018-06-14T19:24:36.659Z,10.37
2018-06-14T19:27:06.037Z,13.10
2018-06-14T19:29:35.161Z,13.27
2018-06-14T19:32:04.264Z,12.93
2018-06-14T19:34:33.327Z,11.17
2018-06-14T19:37:02.467Z,12.93
2018-06-14T19:39:31.654Z,12.73
2018-06-14T19:42:00.760Z,12.43
2018-06-14T19:44:29.937Z,12.83
2018-06-14T19:46:59.531Z,14.77
2018-06-14T19:49:28.604Z,17.00
2018-06-14T19:51:57.680Z,19.77
2018-06-14T19:54:27.627Z,18.70
2018-06-14T19:56:56.708Z,20.50
2018-06-14T19:59:25.823Z,21.13
2018-06-14T20:01:54.940Z,21.20
2018-06-14T20:04:24.027Z,21.00
2018-06-14T20:06:53.127Z,29.27
2018-06-14T20:09:22.338Z,21.67
2018-06-14T20:11:51.443Z,21.10
2018-06-14T20:14:20.524Z,26.10
2018-06-14T20:16:49.618Z,24.20
2018-06-14T20:19:18.715Z,23.53
2018-06-14T20:21:47.811Z,22.50
2018-06-14T20:24:16.910Z,22.93
2018-06-14T20:26:45.967Z,24.17
2018-06-14T20:29:15.071Z,22.87
2018-06-14T20:31:44.139Z,21.30
2018-06-14T20:34:13.279Z,24.30
2018-06-14T20:36:42.394Z,22.60
2018-06-14T20:39:13.059Z,22.10
2018-06-14T20:41:42.186Z,23.77
2018-06-14T20:44:11.239Z,23.97
2018-06-14T20:46:40.311Z,23.27
2018-06-14T20:49:09.461Z,23.40
2018-06-14T20:51:38.612Z,23.30
2018-06-14T20:54:07.699Z,25.27
2018-06-14T20:56:36.820Z,26.60
2018-06-14T20:59:05.936Z,25.07
2018-06-14T21:01:35.088Z,24.70
2018-06-14T21:04:04.162Z,25.73
2018-06-14T21:06:33.251Z,24.80
2018-06-14T21:09:02.387Z,24.67
2018-06-14T21:11:31.474Z,25.60
2018-06-14T21:14:00.569Z,24.57
2018-06-14T21:16:29.695Z,26.23
2018-06-14T21:18:58.776Z,26.30
2018-06-14T21:21:27.852Z,24.30
2018-06-14T21:23:56.972Z,28.27
2018-06-14T21:26:26.054Z,25.00
2018-06-14T21:28:55.386Z,27.70
2018-06-14T21:31:24.439Z,24.30
2018-06-14T21:33:53.699Z,25.17
2018-06-14T21:36:22.869Z,23.50
2018-06-14T21:38:52.041Z,23.60
2018-06-14T21:41:21.133Z,23.50
2018-06-14T21:43:50.213Z,23.40
2018-06-14T21:46:19.287Z,23.20
2018-06-14T21:48:48.370Z,23.40
2018-06-14T21:51:17.459Z,23.57
2018-06-14T21:53:46.527Z,23.07
2018-06-14T21:56:15.708Z,22.03
2018-06-14T21:58:44.785Z,23.40
2018-06-14T22:01:13.844Z,22.07
2018-06-14T22:03:48.466Z,23.07
2018-06-14T22:06:17.207Z,20.57
2018-06-14T22:08:46.151Z,23.97
2018-06-14T22:11:15.213Z,21.83
2018-06-14T22:13:44.315Z,23.67
2018-06-14T22:16:13.388Z,24.47
2018-06-14T22:18:42.414Z,23.17
2018-06-14T22:21:11.507Z,25.57
2018-06-14T22:23:40.591Z,25.47
2018-06-14T22:26:09.710Z,22.60
2018-06-14T22:28:38.804Z,23.73
2018-06-14T22:31:08.017Z,23.67
2018-06-14T22:33:48.454Z,22.67
2018-06-14T22:36:17.748Z,23.63
2018-06-14T22:38:47.135Z,24.00
2018-06-14T22:41:16.247Z,22.70
2018-06-14T22:43:45.340Z,24.40
2018-06-14T22:46:14.425Z,22.77
2018-06-14T22:48:43.515Z,23.23
2018-06-14T22:51:15.108Z,22.77
2018-06-14T22:53:44.301Z,23.53
2018-06-14T22:56:13.477Z,23.40
2018-06-14T22:58:42.609Z,23.60
2018-06-14T23:01:32.056Z,21.53
2018-06-14T23:04:01.744Z,22.90
2018-06-14T23:06:30.905Z,23.40
2018-06-14T23:09:00.922Z,21.50
2018-06-14T23:11:29.995Z,23.30
2018-06-14T23:13:59.083Z,21.60
2018-06-14T23:16:28.180Z,21.83
2018-06-14T23:18:57.355Z,23.60
2018-06-14T23:21:26.547Z,22.63
2018-06-14T23:23:55.648Z,23.07
2018-06-14T23:26:24.747Z,21.30
2018-06-14T23:28:53.803Z,20.63
2018-06-14T23:31:22.889Z,18.40
2018-06-14T23:33:51.951Z,18.90
2018-06-14T23:36:21.052Z,18.00
2018-06-14T23:38:50.168Z,19.80
2018-06-14T23:41:19.294Z,19.40
2018-06-14T23:43:48.364Z,18.90
2018-06-14T23:46:17.471Z,19.53
2018-06-14T23:48:46.826Z,17.30
2018-06-14T23:51:15.923Z,17.30
2018-06-14T23:53:45.001Z,17.17
2018-06-14T23:56:14.070Z,16.23
2018-06-14T23:58:43.416Z,17.07
